Time;durP1;ratioP1;P1;durP2;ratioP2;P2;SDS_P1;SDS_P2;PMS_P1;PMS_P2;Temp;Humidity;BMP_temperature;BMP_pressure;BME280_temperature;BME280_humidity;BME280_pressure;Samples;Min_cycle;Max_cycle;Signal;HPM_P1;HPM_P2
2022/02/24 00:02:19;;;;;;;;;21.75;16.75;;;;;11.27;58.54;101135.88;5075165;28;73724;-60
2022/02/24 00:04:45;;;;;;;;;21.00;18.00;;;;;11.26;58.36;101135.06;5076091;28;45299;-60
2022/02/24 00:07:10;;;;;;;;;20.50;13.50;;;;;11.24;58.19;101141.41;5076241;28;45779;-60
2022/02/24 00:09:36;;;;;;;;;19.25;15.25;;;;;11.22;58.48;101131.00;5076116;28;45296;-60
2022/02/24 00:12:02;;;;;;;;;25.75;23.75;;;;;11.20;58.45;101126.81;5075198;28;67155;-60
2022/02/24 00:14:27;;;;;;;;;26.50;22.50;;;;;11.20;58.49;101124.19;5075863;28;45828;-60
2022/02/24 00:16:53;;;;;;;;;23.25;22.25;;;;;11.20;59.10;101118.94;5075961;28;45232;-61
2022/02/24 00:19:18;;;;;;;;;23.50;23.00;;;;;11.20;58.98;101119.78;5077528;28;64806;-61
2022/02/24 00:21:44;;;;;;;;;29.75;23.00;;;;;11.20;58.65;101118.94;5061367;28;45549;-60
2022/02/24 00:24:10;;;;;;;;;21.25;16.25;;;;;11.19;58.94;101117.25;5078758;28;67916;-61
2022/02/24 00:26:36;;;;;;;;;23.50;21.75;;;;;11.19;59.04;101109.38;5044144;28;45376;-60
2022/02/24 00:29:01;;;;;;;;;25.25;21.75;;;;;11.18;59.13;101111.19;5079604;28;45283;-60
2022/02/24 00:31:26;;;;;;;;;24.75;21.50;;;;;11.19;58.97;101119.88;5079294;28;45457;-60
2022/02/24 00:33:52;;;;;;;;;24.00;22.00;;;;;11.19;59.16;101117.25;5078360;28;68837;-60
2022/02/24 00:36:17;;;;;;;;;22.50;22.50;;;;;11.20;59.27;101108.41;5078595;28;63015;-61
2022/02/24 00:38:42;;;;;;;;;25.50;18.50;;;;;11.18;59.33;101115.59;5078517;28;64951;-60
2022/02/24 00:41:08;;;;;;;;;19.00;19.00;;;;;11.19;59.07;101106.75;5078149;28;73245;-61
2022/02/24 00:43:33;;;;;;;;;29.75;20.00;;;;;11.19;59.17;101106.75;5079168;28;45355;-61
2022/02/24 00:45:58;;;;;;;;;23.25;18.75;;;;;11.18;59.35;101097.19;5078227;28;67910;-59
2022/02/24 00:48:24;;;;;;;;;18.25;17.50;;;;;11.18;59.18;101086.66;5078564;28;59152;-61
2022/02/24 00:50:49;;;;;;;;;24.00;21.00;;;;;11.17;59.85;101082.34;5078194;28;70599;-60
2022/02/24 00:53:15;;;;;;;;;21.50;18.50;;;;;11.18;59.62;101076.13;5077924;28;70698;-61
2022/02/24 00:55:40;;;;;;;;;22.00;20.25;;;;;11.17;59.83;101077.94;5078131;28;69258;-61
2022/02/24 00:58:05;;;;;;;;;20.00;20.00;;;;;11.19;59.49;101075.19;5078054;28;69338;-60
2022/02/24 01:00:31;;;;;;;;;18.25;17.25;;;;;11.18;59.98;101073.50;5077434;28;64622;-61
2022/02/24 01:02:57;;;;;;;;;20.25;18.25;;;;;11.18;59.80;101063.00;5078068;28;68467;-60
2022/02/24 01:05:22;;;;;;;;;24.00;19.75;;;;;11.17;59.97;101066.56;5079098;28;45383;-60
2022/02/24 01:07:47;;;;;;;;;19.00;18.00;;;;;11.17;59.83;101067.44;5079053;28;45283;-61
2022/02/24 01:10:13;;;;;;;;;23.25;19.00;;;;;11.17;59.73;101066.56;5077984;28;66276;-61
2022/02/24 01:12:38;;;;;;;;;19.25;18.25;;;;;11.16;59.95;101072.78;5078368;28;51554;-60
2022/02/24 01:15:06;;;;;;;;;16.50;14.25;;;;;11.12;60.33;101052.03;5078045;28;62612;-60
2022/02/24 01:17:41;;;;;;;;;20.25;17.00;;;;;11.11;60.76;101058.25;5078875;28;45520;-60
2022/02/24 01:20:07;;;;;;;;;19.50;17.25;;;;;11.12;60.75;101059.06;5078124;28;62461;-61
2022/02/24 01:22:32;;;;;;;;;15.25;14.50;;;;;11.11;60.67;101055.63;5078524;28;45378;-60
2022/02/24 01:24:58;;;;;;;;;22.00;20.75;;;;;11.08;60.38;101041.88;5077848;28;61370;-61
2022/02/24 01:27:23;;;;;;;;;26.50;20.75;;;;;11.06;60.54;101034.13;5078552;28;45379;-60
2022/02/24 01:29:48;;;;;;;;;26.75;24.00;;;;;11.05;60.90;101040.34;5076732;28;66145;-60
2022/02/24 01:32:14;;;;;;;;;28.75;25.25;;;;;11.05;60.66;101032.47;5077747;28;58840;-60
2022/02/24 01:34:39;;;;;;;;;18.00;17.50;;;;;11.05;60.55;101029.84;5078531;28;45316;-60
2022/02/24 01:37:05;;;;;;;;;20.75;19.00;;;;;11.07;60.96;101019.19;5077606;28;61049;-61
2022/02/24 01:39:30;;;;;;;;;31.25;23.75;;;;;11.07;61.10;101019.19;5078150;28;45801;-61
2022/02/24 01:41:56;;;;;;;;;28.00;23.25;;;;;11.05;60.77;101011.44;5077488;28;62932;-61
2022/02/24 01:44:21;;;;;;;;;26.75;25.25;;;;;11.04;60.68;101009.75;5078371;28;45263;-61
2022/02/24 01:46:46;;;;;;;;;19.75;18.25;;;;;11.05;60.88;101021.94;5077530;28;63154;-60
2022/02/24 01:49:12;;;;;;;;;20.75;18.50;;;;;11.03;61.60;101015.97;5077004;28;72994;-60
2022/02/24 01:51:37;;;;;;;;;29.00;25.75;;;;;11.00;61.39;100987.31;5078072;28;45252;-60
2022/02/24 01:54:04;;;;;;;;;24.00;23.00;;;;;11.00;61.16;100987.31;5078189;28;45382;-60
2022/02/24 01:56:30;;;;;;;;;28.00;26.25;;;;;11.01;60.69;101006.53;5078061;28;45616;-60
2022/02/24 01:58:55;;;;;;;;;28.75;23.25;;;;;10.98;61.33;101000.56;5077837;28;47127;-60
2022/02/24 02:01:21;;;;;;;;;28.25;24.50;;;;;10.97;61.72;100998.91;5077741;28;50996;-60
2022/02/24 02:03:48;;;;;;;;;28.00;24.75;;;;;10.96;61.69;100986.72;5078121;28;45359;-60
2022/02/24 02:06:13;;;;;;;;;32.75;27.75;;;;;10.97;61.71;100987.56;5059282;28;45518;-60
2022/02/24 02:08:39;;;;;;;;;24.25;22.50;;;;;10.99;61.50;100985.63;5076998;28;70543;-60
2022/02/24 02:11:05;;;;;;;;;29.50;26.00;;;;;11.01;61.84;100977.59;5077060;28;68679;-60
2022/02/24 02:13:34;;;;;;;;;31.25;28.50;;;;;11.02;61.95;100974.88;5077845;28;45359;-60
2022/02/24 02:15:59;;;;;;;;;29.25;23.25;;;;;11.03;62.03;100981.78;5077909;28;45256;-60
2022/02/24 02:18:24;;;;;;;;;21.75;20.00;;;;;11.02;62.66;100990.66;5077388;28;47240;-60
2022/02/24 02:20:51;;;;;;;;;20.50;18.50;;;;;10.99;62.91;100988.28;5076580;28;72163;-60
2022/02/24 02:23:16;;;;;;;;;18.00;18.00;;;;;10.96;63.39;100978.00;5077716;28;45565;-60
2022/02/24 02:25:42;;;;;;;;;22.25;20.00;;;;;10.98;64.04;100979.53;5077671;28;45332;-61
2022/02/24 02:28:07;;;;;;;;;19.00;17.50;;;;;10.98;64.28;100974.28;5077443;28;45507;-60
2022/02/24 02:30:33;;;;;;;;;21.50;17.00;;;;;10.99;64.19;100948.81;5076410;28;45342;-60
2022/02/24 02:32:58;;;;;;;;;18.00;16.75;;;;;10.99;64.49;100933.06;5076674;28;63804;-60
2022/02/24 02:35:24;;;;;;;;;20.50;16.75;;;;;11.00;64.65;100929.47;5077497;28;45370;-60
2022/02/24 02:37:50;;;;;;;;;19.75;13.50;;;;;10.99;65.29;100922.53;5077286;28;46919;-60
2022/02/24 02:40:15;;;;;;;;;21.25;17.25;;;;;11.00;65.44;100913.69;5077521;28;45408;-60
2022/02/24 02:42:40;;;;;;;;;18.25;16.00;;;;;11.00;65.48;100913.69;5077534;28;45394;-60
2022/02/24 02:45:06;;;;;;;;;21.00;20.00;;;;;10.97;65.84;100908.69;5076744;28;61020;-60
2022/02/24 02:47:32;;;;;;;;;20.50;18.50;;;;;10.95;65.70;100921.13;5077107;28;45876;-60
2022/02/24 02:49:57;;;;;;;;;18.50;17.75;;;;;10.93;65.87;100925.69;5076675;28;57045;-60
2022/02/24 02:52:23;;;;;;;;;19.00;17.50;;;;;10.89;66.36;100932.97;5077229;28;45294;-60
2022/02/24 02:54:51;;;;;;;;;18.50;14.00;;;;;10.86;66.51;100927.16;5077183;28;45284;-61
2022/02/24 02:57:16;;;;;;;;;21.75;16.25;;;;;10.82;66.24;100921.31;5076983;28;45228;-60
2022/02/24 02:59:41;;;;;;;;;15.00;14.25;;;;;10.80;66.69;100921.44;5077224;28;45354;-61
2022/02/24 03:02:07;;;;;;;;;16.25;15.75;;;;;10.76;66.50;100916.56;5076349;28;60239;-60
2022/02/24 03:04:32;;;;;;;;;18.75;15.00;;;;;10.77;66.43;100926.94;5077068;28;45290;-60
2022/02/24 03:06:58;;;;;;;;;15.50;12.75;;;;;10.74;66.58;100919.31;5076332;28;60168;-61
2022/02/24 03:09:23;;;;;;;;;15.75;12.75;;;;;10.72;66.92;100917.78;5076877;28;45259;-60
2022/02/24 03:11:48;;;;;;;;;16.00;14.75;;;;;10.71;66.89;100913.50;5076298;28;60034;-60
2022/02/24 03:14:14;;;;;;;;;16.50;14.75;;;;;10.69;67.16;100905.72;5076264;28;56529;-61
2022/02/24 03:16:39;;;;;;;;;18.00;14.00;;;;;10.67;67.38;100900.59;5076729;28;46001;-60
2022/02/24 03:19:04;;;;;;;;;16.00;12.25;;;;;10.68;67.61;100898.78;5076624;28;45264;-60
2022/02/24 03:21:30;;;;;;;;;16.00;13.00;;;;;10.67;67.59;100903.25;5076884;28;45408;-60
2022/02/24 03:23:55;;;;;;;;;19.00;13.25;;;;;10.65;67.60;100896.44;5075942;28;64244;-61
2022/02/24 03:26:21;;;;;;;;;12.50;12.25;;;;;10.66;67.79;100895.47;5075629;28;73281;-61
2022/02/24 03:28:46;;;;;;;;;13.00;12.50;;;;;10.66;67.55;100898.09;5076665;28;45288;-60
2022/02/24 03:31:11;;;;;;;;;14.50;12.00;;;;;10.64;67.98;100895.59;5076515;28;45512;-61
2022/02/24 03:33:37;;;;;;;;;12.75;9.50;;;;;10.63;68.18;100888.69;5076188;28;49910;-61
2022/02/24 03:36:02;;;;;;;;;11.25;11.25;;;;;10.62;68.20;100891.41;5076298;28;48988;-60
2022/02/24 03:38:28;;;;;;;;;14.25;12.75;;;;;10.63;68.21;100895.72;5076500;28;47830;-60
2022/02/24 03:40:53;;;;;;;;;11.25;11.25;;;;;10.61;68.03;100893.22;5076692;28;45598;-60
2022/02/24 03:43:18;;;;;;;;;17.25;13.25;;;;;10.62;67.96;100888.78;5041543;28;45491;-60
2022/02/24 03:45:44;;;;;;;;;16.25;12.50;;;;;10.62;68.06;100891.41;5075473;28;69500;-61
2022/02/24 03:48:09;;;;;;;;;12.00;10.00;;;;;10.59;68.06;100878.56;5076104;28;45439;-60
2022/02/24 03:50:35;;;;;;;;;9.00;8.25;;;;;10.58;68.05;100879.53;5076394;28;45292;-60
2022/02/24 03:53:00;;;;;;;;;12.00;9.25;;;;;10.57;68.30;100873.44;5076927;28;64453;-60
2022/02/24 03:55:25;;;;;;;;;15.25;12.75;;;;;10.56;68.34;100865.69;5081751;28;75571;-61
2022/02/24 03:57:51;;;;;;;;;11.50;10.00;;;;;10.57;68.07;100864.72;5082157;28;71263;-60
2022/02/24 04:00:16;;;;;;;;;12.75;10.50;;;;;10.56;68.25;100863.06;5082422;28;63338;-60
2022/02/24 04:02:42;;;;;;;;;11.00;8.25;;;;;10.54;68.42;100861.38;5083074;28;45352;-60
2022/02/24 04:05:09;;;;;;;;;11.50;9.00;;;;;10.54;68.37;100853.50;5082958;28;46204;-61
2022/02/24 04:07:35;;;;;;;;;12.00;9.50;;;;;10.51;68.48;100853.75;5082110;28;45396;-61
2022/02/24 04:10:00;;;;;;;;;15.75;10.25;;;;;10.50;68.16;100849.47;5082995;28;45315;-60
2022/02/24 04:12:26;;;;;;;;;13.50;9.50;;;;;10.52;68.63;100857.22;5082268;28;60886;-61
2022/02/24 04:14:51;;;;;;;;;9.25;7.25;;;;;10.51;68.50;100847.66;5082702;28;45819;-60
2022/02/24 04:17:16;;;;;;;;;12.00;9.50;;;;;10.49;68.19;100850.44;5081777;28;72194;-61
2022/02/24 04:19:42;;;;;;;;;14.75;10.75;;;;;10.49;68.12;100832.03;5082980;28;45656;-60
2022/02/24 04:22:08;;;;;;;;;10.75;9.50;;;;;10.47;67.70;100823.44;5082934;28;45205;-60
2022/02/24 04:24:33;;;;;;;;;11.50;10.50;;;;;10.47;67.78;100833.09;5082658;28;45284;-60
2022/02/24 04:26:59;;;;;;;;;9.00;8.75;;;;;10.48;67.52;100835.63;5082770;28;45234;-60
2022/02/24 04:29:24;;;;;;;;;14.75;9.75;;;;;10.47;67.72;100833.09;5082942;28;45456;-60
2022/02/24 04:31:50;;;;;;;;;6.75;6.00;;;;;10.45;67.44;100830.63;5082205;28;47877;-61
2022/02/24 04:34:15;;;;;;;;;10.00;8.25;;;;;10.44;67.79;100828.97;5081397;28;74294;-61
2022/02/24 04:36:40;;;;;;;;;7.00;6.75;;;;;10.40;67.95;100822.28;5081586;28;69665;-59
2022/02/24 04:39:06;;;;;;;;;8.50;7.00;;;;;10.35;67.61;100824.44;5081806;28;66512;-61
2022/02/24 04:41:33;;;;;;;;;7.00;7.00;;;;;10.31;68.17;100817.78;5082631;28;45481;-60
2022/02/24 04:43:58;;;;;;;;;8.25;8.25;;;;;10.30;68.23;100823.97;5081390;28;71254;-60
2022/02/24 04:46:23;;;;;;;;;7.25;5.00;;;;;10.27;68.27;100819.81;5081604;28;67949;-60
2022/02/24 04:48:49;;;;;;;;;9.00;7.50;;;;;10.25;68.01;100816.50;5082667;28;45385;-60
2022/02/24 04:51:14;;;;;;;;;9.00;6.75;;;;;10.22;68.20;100828.06;5081763;28;61449;-59
2022/02/24 04:53:39;;;;;;;;;9.00;8.00;;;;;10.20;68.45;100830.00;5081577;28;66399;-61
2022/02/24 04:56:06;;;;;;;;;10.00;7.25;;;;;10.17;68.39;100830.25;5081487;28;66413;-60
2022/02/24 04:58:32;;;;;;;;;10.50;9.25;;;;;10.13;68.35;100822.75;5082444;28;45397;-60
2022/02/24 05:00:57;;;;;;;;;8.00;7.00;;;;;10.13;68.31;100817.50;5082195;28;45332;-60
2022/02/24 05:03:23;;;;;;;;;9.25;9.00;;;;;10.13;68.68;100820.13;5082046;28;45373;-61
2022/02/24 05:05:48;;;;;;;;;11.00;7.75;;;;;10.10;68.48;100802.81;5078263;28;45182;-61
2022/02/24 05:08:13;;;;;;;;;7.75;7.50;;;;;10.08;68.51;100797.69;5079028;28;45181;-60
2022/02/24 05:10:39;;;;;;;;;16.25;9.75;;;;;10.09;68.64;100795.91;5078006;28;63764;-60
2022/02/24 05:13:04;;;;;;;;;10.25;8.25;;;;;10.08;69.02;100797.69;5077272;28;45273;-60
2022/02/24 05:15:30;;;;;;;;;10.75;8.00;;;;;10.08;68.65;100796.84;5078739;28;45214;-61
2022/02/24 05:17:55;;;;;;;;;11.00;8.50;;;;;10.07;68.71;100789.94;5077962;28;60136;-60
2022/02/24 05:20:21;;;;;;;;;13.50;9.00;;;;;10.05;68.77;100794.50;5077985;28;65042;-61
2022/02/24 05:22:46;;;;;;;;;8.00;7.25;;;;;10.03;68.82;100783.31;5078127;28;60468;-60
2022/02/24 05:25:13;;;;;;;;;12.75;9.00;;;;;10.04;68.62;100787.59;5078570;28;45287;-60
2022/02/24 05:27:39;;;;;;;;;16.00;11.25;;;;;10.03;69.10;100784.13;5078690;28;45517;-60
2022/02/24 05:30:05;;;;;;;;;11.00;9.00;;;;;10.02;68.71;100787.72;5077862;28;56737;-60
2022/02/24 05:32:30;;;;;;;;;14.00;11.00;;;;;10.04;68.59;100792.84;5078423;28;46975;-60
2022/02/24 05:34:56;;;;;;;;;14.75;10.00;;;;;10.02;68.30;100786.88;5078336;28;45441;-61
2022/02/24 05:37:25;;;;;;;;;12.50;10.25;;;;;10.01;68.66;100780.78;5077792;28;62910;-60
2022/02/24 05:39:51;;;;;;;;;12.50;9.00;;;;;10.00;68.85;100787.00;5078606;28;45347;-60
2022/02/24 05:42:16;;;;;;;;;9.50;9.50;;;;;9.98;68.74;100778.41;5078231;28;45255;-60
2022/02/24 05:44:42;;;;;;;;;11.25;7.25;;;;;9.98;68.10;100778.41;5077626;28;63216;-60
2022/02/24 05:47:07;;;;;;;;;16.75;10.25;;;;;9.99;68.02;100776.63;5078370;28;45252;-61
2022/02/24 05:49:32;;;;;;;;;8.75;7.50;;;;;9.99;67.94;100771.38;5076305;28;59287;-60
2022/02/24 05:51:58;;;;;;;;;7.75;7.50;;;;;9.98;67.52;100773.16;5077351;28;68619;-60
2022/02/24 05:54:23;;;;;;;;;12.25;12.25;;;;;9.99;67.07;100774.00;5076977;28;69465;-60
2022/02/24 05:56:49;;;;;;;;;8.50;8.00;;;;;9.97;66.80;100771.50;5077259;28;67635;-61
2022/02/24 05:59:14;;;;;;;;;17.00;8.00;;;;;9.97;66.91;100768.88;5078112;28;45488;-60
2022/02/24 06:01:39;;;;;;;;;8.75;7.75;;;;;9.94;66.78;100774.38;5077326;28;62772;-60
2022/02/24 06:04:05;;;;;;;;;10.25;7.00;;;;;9.92;66.65;100777.13;5077050;28;67742;-60
2022/02/24 06:06:30;;;;;;;;;9.00;7.00;;;;;9.87;66.65;100776.69;5078146;28;45241;-60
2022/02/24 06:08:55;;;;;;;;;10.00;8.25;;;;;9.85;66.32;100775.97;5077100;28;63847;-60
2022/02/24 06:11:21;;;;;;;;;6.00;5.00;;;;;9.81;66.59;100771.94;5076535;28;74579;-61
2022/02/24 06:13:46;;;;;;;;;8.25;6.50;;;;;9.79;66.71;100771.22;5077717;28;45352;-60
2022/02/24 06:16:12;;;;;;;;;7.00;5.50;;;;;9.78;66.22;100766.94;5077799;28;45540;-60
2022/02/24 06:18:37;;;;;;;;;7.75;6.00;;;;;9.76;65.93;100768.84;5059783;28;45473;-60
2022/02/24 06:21:02;;;;;;;;;5.50;5.00;;;;;9.72;66.19;100760.41;5076947;28;66433;-60
2022/02/24 06:23:28;;;;;;;;;8.25;5.00;;;;;9.70;65.77;100750.97;5076935;28;63250;-61
2022/02/24 06:25:53;;;;;;;;;8.00;5.00;;;;;9.65;65.82;100753.97;5077217;28;54279;-61
2022/02/24 06:28:19;;;;;;;;;10.25;4.00;;;;;9.61;65.48;100757.81;5077403;28;45353;-60
2022/02/24 06:30:44;;;;;;;;;8.00;4.75;;;;;9.56;65.64;100758.16;5076816;28;55815;-61
2022/02/24 06:33:09;;;;;;;;;5.25;4.75;;;;;9.52;65.70;100755.94;5076756;28;62179;-60
2022/02/24 06:35:35;;;;;;;;;5.00;4.00;;;;;9.48;65.25;100757.97;5058700;28;61796;-60
2022/02/24 06:38:01;;;;;;;;;5.25;5.00;;;;;9.44;64.76;100751.31;5076456;28;59830;-60
2022/02/24 06:40:26;;;;;;;;;5.75;5.00;;;;;9.38;64.65;100757.03;5077180;28;47132;-60
2022/02/24 06:42:52;;;;;;;;;5.50;3.50;;;;;9.37;64.64;100760.63;5076984;28;51137;-60
2022/02/24 06:45:17;;;;;;;;;5.00;4.00;;;;;9.33;64.24;100766.09;5076449;28;60090;-60
2022/02/24 06:47:43;;;;;;;;;4.00;4.00;;;;;9.30;64.25;100762.88;5077306;28;45485;-60
2022/02/24 06:50:09;;;;;;;;;6.00;6.00;;;;;9.27;63.11;100750.03;5077069;28;46151;-60
2022/02/24 06:52:36;;;;;;;;;5.50;3.75;;;;;9.24;63.44;100753.72;5077077;28;45973;-60
2022/02/24 06:55:01;;;;;;;;;7.25;4.00;;;;;9.23;63.25;100748.63;5076533;28;45292;-59
2022/02/24 06:57:27;;;;;;;;;3.50;3.00;;;;;9.20;63.75;100749.69;5077350;28;45506;-60
2022/02/24 06:59:52;;;;;;;;;4.00;3.50;;;;;9.16;63.86;100751.72;5077023;28;45812;-60
2022/02/24 07:02:17;;;;;;;;;5.50;3.50;;;;;9.16;63.53;100756.13;5076209;28;62842;-60
2022/02/24 07:04:43;;;;;;;;;6.00;4.75;;;;;9.14;63.34;100750.16;5076976;28;45240;-60
2022/02/24 07:07:10;;;;;;;;;4.50;2.50;;;;;9.15;63.25;100751.81;5077074;28;45622;-60
2022/02/24 07:09:36;;;;;;;;;6.00;2.00;;;;;9.13;63.66;100756.34;5058857;28;47104;-60
2022/02/24 07:12:01;;;;;;;;;4.25;3.00;;;;;9.12;63.71;100758.16;5075702;28;45389;-60
2022/02/24 07:14:26;;;;;;;;;5.00;4.00;;;;;9.12;63.51;100749.44;5076804;28;45868;-60
2022/02/24 07:16:52;;;;;;;;;6.75;5.25;;;;;9.11;63.38;100748.63;5075918;28;68876;-60
2022/02/24 07:19:18;;;;;;;;;6.50;5.75;;;;;9.12;63.21;100752.91;5075766;28;72446;-60
2022/02/24 07:21:43;;;;;;;;;6.75;5.25;;;;;9.14;62.90;100755.41;5076869;28;45461;-60
2022/02/24 07:24:09;;;;;;;;;7.75;5.00;;;;;9.16;62.77;100762.22;5076589;28;47341;-60
2022/02/24 07:26:34;;;;;;;;;6.75;6.00;;;;;9.18;62.34;100752.44;5076004;28;59480;-60
2022/02/24 07:29:00;;;;;;;;;10.50;8.00;;;;;9.23;62.87;100765.16;5075272;28;61936;-60
2022/02/24 07:31:25;;;;;;;;;6.25;5.00;;;;;9.28;62.65;100762.16;5076400;28;45323;-60
2022/02/24 07:33:51;;;;;;;;;5.75;5.00;;;;;9.30;62.50;100765.50;5076681;28;45364;-60
2022/02/24 07:36:16;;;;;;;;;5.00;5.00;;;;;9.34;62.03;100762.53;5076696;28;45388;-61
2022/02/24 07:38:42;;;;;;;;;7.00;5.75;;;;;9.38;61.65;100762.28;5075649;28;69073;-60
2022/02/24 07:41:07;;;;;;;;;7.00;4.75;;;;;9.40;61.75;100755.94;5076610;28;45241;-60
2022/02/24 07:43:32;;;;;;;;;6.50;4.00;;;;;9.44;61.36;100769.66;5076643;28;45665;-60
2022/02/24 07:45:58;;;;;;;;;4.00;3.00;;;;;9.46;60.66;100771.19;5075719;28;65770;-60
2022/02/24 07:48:24;;;;;;;;;9.50;4.25;;;;;9.51;60.76;100776.09;5076182;28;45294;-60
2022/02/24 07:50:50;;;;;;;;;5.00;3.50;;;;;9.54;60.46;100770.56;5076386;28;45189;-60
2022/02/24 07:53:15;;;;;;;;;4.50;3.75;;;;;9.56;59.77;100771.28;5076377;28;45165;-60
2022/02/24 07:55:41;;;;;;;;;5.25;4.75;;;;;9.63;60.03;100767.22;5075780;28;53879;-60
2022/02/24 07:58:07;;;;;;;;;6.25;5.00;;;;;9.67;60.18;100761.72;5076209;28;46099;-60
2022/02/24 08:00:32;;;;;;;;;5.75;4.00;;;;;9.72;59.55;100765.66;5058075;28;45494;-60
2022/02/24 08:02:57;;;;;;;;;10.25;5.00;;;;;9.77;59.53;100763.47;5075834;28;57138;-60
2022/02/24 08:05:23;;;;;;;;;8.50;5.25;;;;;9.82;59.75;100764.88;5076122;28;45458;-60
2022/02/24 08:07:48;;;;;;;;;9.50;5.25;;;;;9.87;59.12;100767.97;5074856;28;45435;-59
2022/02/24 08:10:13;;;;;;;;;8.25;4.25;;;;;9.92;59.12;100760.53;5074899;28;73663;-60
2022/02/24 08:12:39;;;;;;;;;5.00;3.50;;;;;9.97;58.74;100762.81;5075505;28;59404;-60
2022/02/24 08:15:08;;;;;;;;;2.50;2.00;;;;;10.01;58.04;100756.34;5075342;28;60669;-59
2022/02/24 08:17:34;;;;;;;;;14.00;7.00;;;;;10.05;58.32;100749.88;5074934;28;46988;-60
2022/02/24 08:19:59;;;;;;;;;28.75;22.00;;;;;10.09;58.60;100743.38;5075548;28;45480;-60
2022/02/24 08:22:25;;;;;;;;;12.75;11.25;;;;;10.15;57.93;100742.88;5075755;28;45217;-60
2022/02/24 08:24:51;;;;;;;;;10.50;6.00;;;;;10.19;57.89;100740.84;5075729;28;45641;-60
2022/02/24 08:27:16;;;;;;;;;6.00;5.00;;;;;10.22;57.46;100736.16;5075824;28;45518;-60
2022/02/24 08:29:42;;;;;;;;;5.00;4.00;;;;;10.28;57.23;100726.09;5056794;28;67197;-60
2022/02/24 08:32:07;;;;;;;;;5.75;4.00;;;;;10.34;57.34;100722.97;5075895;28;45483;-60
2022/02/24 08:34:32;;;;;;;;;7.00;5.50;;;;;10.42;57.15;100722.34;5075363;28;50657;-60
2022/02/24 08:36:58;;;;;;;;;8.00;5.00;;;;;10.47;56.88;100722.78;5075609;28;45367;-60
2022/02/24 08:39:23;;;;;;;;;4.25;3.00;;;;;10.53;56.37;100725.72;5076030;28;64652;-60
2022/02/24 08:41:49;;;;;;;;;6.00;4.00;;;;;10.62;56.49;100739.00;5079294;28;45756;-60
2022/02/24 08:44:14;;;;;;;;;4.50;4.00;;;;;10.69;56.90;100737.53;5079151;28;45264;-60
2022/02/24 08:46:39;;;;;;;;;37.75;33.25;;;;;10.77;55.93;100731.63;5077970;28;71171;-60
2022/02/24 08:49:05;;;;;;;;;3.25;3.25;;;;;10.84;55.41;100725.69;5087081;27;61244;-60
2022/02/24 08:51:31;;;;;;;;;6.00;6.00;;;;;10.90;55.38;100726.94;5120306;27;45422;-60
2022/02/24 08:53:56;;;;;;;;;5.50;4.25;;;;;10.98;55.00;100726.31;5120132;27;45240;-61
2022/02/24 08:56:21;;;;;;;;;5.00;3.75;;;;;11.02;54.57;100722.44;5118269;27;46238;-60
2022/02/24 08:58:47;;;;;;;;;5.75;2.75;;;;;11.04;54.45;100723.13;5104266;27;70716;-60
2022/02/24 09:01:12;;;;;;;;;4.00;2.25;;;;;11.05;54.19;100724.81;5098288;27;62730;-60
2022/02/24 09:03:38;;;;;;;;;5.75;4.00;;;;;11.08;54.39;100718.44;5098829;27;56472;-60
2022/02/24 09:06:03;;;;;;;;;3.00;3.00;;;;;11.10;53.79;100730.50;5099004;27;53946;-61
2022/02/24 09:08:28;;;;;;;;;3.00;2.75;;;;;11.10;53.60;100722.59;5098453;27;67820;-60
2022/02/24 09:10:54;;;;;;;;;6.50;3.25;;;;;11.10;53.85;100725.25;5099393;27;45545;-60
2022/02/24 09:13:19;;;;;;;;;3.25;2.00;;;;;11.09;53.42;100734.09;5099303;27;45287;-60
2022/02/24 09:15:45;;;;;;;;;5.50;3.00;;;;;11.09;53.56;100738.50;5098476;27;64726;-60
2022/02/24 09:18:10;;;;;;;;;6.50;3.00;;;;;11.10;53.42;100732.28;5098051;27;59931;-60
2022/02/24 09:20:36;;;;;;;;;4.25;3.00;;;;;11.08;54.25;100721.06;5097759;27;45466;-60
2022/02/24 09:23:01;;;;;;;;;4.25;3.00;;;;;11.06;54.19;100723.00;5099032;27;45510;-59
2022/02/24 09:25:27;;;;;;;;;5.25;2.25;;;;;11.06;53.68;100723.00;5098710;27;53026;-60
2022/02/24 09:27:52;;;;;;;;;5.00;3.00;;;;;11.04;53.58;100732.81;5098903;27;45518;-60
2022/02/24 09:30:18;;;;;;;;;3.00;1.75;;;;;11.03;53.87;100725.88;5097995;27;62508;-60
2022/02/24 09:32:43;;;;;;;;;2.75;2.00;;;;;10.99;53.74;100720.09;5096471;27;65877;-60
2022/02/24 09:35:09;;;;;;;;;2.50;1.75;;;;;10.99;53.43;100727.97;5078658;27;46103;-61
2022/02/24 09:37:36;;;;;;;;;4.50;3.00;;;;;10.96;53.45;100720.34;5096183;27;45489;-60
2022/02/24 09:40:06;;;;;;;;;3.50;3.00;;;;;10.95;54.05;100716.88;5097500;27;45460;-60
2022/02/24 09:42:31;;;;;;;;;2.75;1.00;;;;;10.97;53.86;100729.91;5096913;27;45480;-61
2022/02/24 09:44:57;;;;;;;;;5.50;2.00;;;;;10.96;53.74;100728.25;5097578;27;46377;-60
2022/02/24 09:47:23;;;;;;;;;3.00;1.75;;;;;10.96;54.25;100726.41;5097401;27;69389;-60
2022/02/24 09:49:49;;;;;;;;;2.25;2.00;;;;;10.97;54.21;100728.09;5080478;27;45893;-60
2022/02/24 09:52:14;;;;;;;;;3.00;3.00;;;;;10.95;54.61;100713.44;5061705;27;72772;-60
2022/02/24 09:54:39;;;;;;;;;4.00;2.25;;;;;10.96;54.35;100720.34;5098452;27;46121;-59
2022/02/24 09:57:05;;;;;;;;;4.25;2.75;;;;;11.01;54.83;100709.41;5097645;27;64578;-60
2022/02/24 09:59:30;;;;;;;;;3.00;2.25;;;;;11.06;55.28;100718.59;5078734;27;69089;-60
2022/02/24 10:01:56;;;;;;;;;3.50;2.00;;;;;11.12;55.36;100706.69;5098469;27;45306;-60
2022/02/24 10:04:23;;;;;;;;;2.00;2.00;;;;;11.19;54.72;100707.81;5079179;27;64932;-59
2022/02/24 10:06:48;;;;;;;;;2.25;1.75;;;;;11.26;54.97;100700.19;5098201;27;45253;-60
2022/02/24 10:09:34;;;;;;;;;2.25;2.25;;;;;11.31;55.11;100712.94;5098435;27;45462;-60
2022/02/24 10:12:06;;;;;;;;;2.75;1.25;;;;;11.34;54.91;100710.88;5097256;27;62461;-60
2022/02/24 10:14:32;;;;;;;;;3.50;2.00;;;;;11.37;54.78;100710.59;5098071;27;46178;-60
2022/02/24 10:16:59;;;;;;;;;3.00;1.75;;;;;11.42;54.79;100697.84;5097971;27;45391;-60
2022/02/24 10:19:35;;;;;;;;;4.50;2.00;;;;;11.46;54.79;100695.78;5098078;27;45284;-60
2022/02/24 10:22:10;;;;;;;;;6.25;2.75;;;;;11.52;54.77;100699.66;5097928;27;45378;-60
2022/02/24 10:24:36;;;;;;;;;8.25;2.50;;;;;11.56;54.84;100693.97;5098013;27;46231;-61
2022/02/24 10:27:29;;;;;;;;;3.00;2.00;;;;;11.61;54.25;100693.59;5097828;27;45312;-60
2022/02/24 10:30:09;;;;;;;;;1.00;1.00;;;;;11.68;53.57;100688.56;5097813;27;45222;-60
2022/02/24 10:32:38;;;;;;;;;2.50;2.00;;;;;11.84;53.97;100695.91;5098112;27;45322;-60
2022/02/24 10:35:26;;;;;;;;;2.25;2.25;;;;;12.04;53.66;100685.38;5097547;27;45872;-60
2022/02/24 10:37:55;;;;;;;;;2.50;1.25;;;;;12.26;52.67;100700.03;5097921;27;45433;-60
2022/02/24 10:40:21;;;;;;;;;2.00;1.00;;;;;12.50;52.35;100699.53;5097667;27;45303;-60
2022/02/24 10:42:47;;;;;;;;;2.50;1.00;;;;;12.70;52.19;100708.19;5097726;27;45593;-60
2022/02/24 10:45:16;;;;;;;;;2.00;1.50;;;;;12.90;51.74;100698.34;5043619;27;76204;-61
2022/02/24 10:47:58;;;;;;;;;2.50;2.00;;;;;13.09;51.13;100685.19;5097440;27;45787;-60
2022/02/24 10:50:46;;;;;;;;;5.00;2.00;;;;;13.29;50.27;100680.59;5097501;27;45263;-61
2022/02/24 10:53:11;;;;;;;;;2.00;2.00;;;;;13.43;50.03;100688.03;5095299;27;45431;-61
2022/02/24 10:55:56;;;;;;;;;2.00;1.00;;;;;13.60;49.67;100686.38;5094023;27;63119;-60
2022/02/24 10:58:21;;;;;;;;;2.00;2.00;;;;;13.74;49.09;100679.72;5096275;27;45461;-61
2022/02/24 11:00:47;;;;;;;;;3.00;1.25;;;;;13.91;49.42;100674.56;5096832;27;45401;-60
2022/02/24 11:03:12;;;;;;;;;1.00;1.00;;;;;14.06;48.72;100673.00;5096428;27;45223;-60
2022/02/24 11:05:39;;;;;;;;;3.50;2.00;;;;;14.20;48.21;100668.13;5096104;27;70985;-61
2022/02/24 11:08:06;;;;;;;;;2.50;1.25;;;;;14.35;48.35;100661.25;5078912;27;46462;-60
2022/02/24 11:10:31;;;;;;;;;3.00;1.50;;;;;14.56;47.78;100651.28;5097254;27;45396;-61
2022/02/24 11:12:57;;;;;;;;;2.00;2.00;;;;;14.75;47.86;100650.22;5078893;27;46121;-61
2022/02/24 11:15:22;;;;;;;;;2.00;1.00;;;;;14.95;47.43;100642.84;5060966;27;72381;-59